createdAt,value
2018-07-31T00:00:30.417Z,98733.67
2018-07-31T00:02:58.722Z,98736.16
2018-07-31T00:05:26.953Z,98736.15
2018-07-31T00:07:56.943Z,98737.00
2018-07-31T00:10:25.360Z,98737.33
2018-07-31T00:12:53.645Z,98736.50
2018-07-31T00:15:22.012Z,98730.89
2018-07-31T00:17:50.405Z,98740.80
2018-07-31T00:20:18.729Z,98741.31
2018-07-31T00:22:47.007Z,98743.17
2018-07-31T00:25:15.293Z,98745.14
2018-07-31T00:27:43.592Z,98744.51
2018-07-31T00:30:12.014Z,98746.20
2018-07-31T00:32:40.321Z,98739.75
2018-07-31T00:35:08.637Z,98737.09
2018-07-31T00:37:36.905Z,98739.17
2018-07-31T00:40:05.332Z,98738.23
2018-07-31T00:42:33.604Z,98745.23
2018-07-31T00:45:01.917Z,98738.34
2018-07-31T00:47:30.310Z,98739.81
2018-07-31T00:49:58.552Z,98743.13
2018-07-31T00:52:26.992Z,98742.03
2018-07-31T00:54:55.266Z,98731.77
2018-07-31T00:57:23.782Z,98730.79
2018-07-31T00:59:52.198Z,98737.56
2018-07-31T01:02:20.505Z,98730.92
2018-07-31T01:04:48.881Z,98727.56
2018-07-31T01:07:17.177Z,98737.50
2018-07-31T01:09:45.493Z,98732.95
2018-07-31T01:12:13.749Z,98725.23
2018-07-31T01:14:42.030Z,98730.09
2018-07-31T01:17:10.428Z,98727.22
2018-07-31T01:19:38.799Z,98726.14
2018-07-31T01:22:11.285Z,98720.60
2018-07-31T01:24:39.586Z,98727.22
2018-07-31T01:27:07.890Z,98726.41
2018-07-31T01:29:36.249Z,98725.77
2018-07-31T01:32:04.858Z,98718.43
2018-07-31T01:34:33.143Z,98723.91
2018-07-31T01:37:01.548Z,98727.97
2018-07-31T01:39:29.989Z,98728.68
2018-07-31T01:41:58.241Z,98722.31
2018-07-31T01:44:26.511Z,98726.77
2018-07-31T01:46:54.902Z,98720.35
2018-07-31T01:49:23.153Z,98713.57
2018-07-31T01:51:51.421Z,98722.03
2018-07-31T01:54:19.692Z,98718.00
2018-07-31T01:56:48.093Z,98719.33
2018-07-31T01:59:16.380Z,98707.82
2018-07-31T02:01:44.704Z,98712.39
2018-07-31T02:04:13.102Z,98709.09
2018-07-31T02:06:41.342Z,98711.68
2018-07-31T02:09:09.729Z,98709.78
2018-07-31T02:11:37.992Z,98706.42
2018-07-31T02:14:06.325Z,98709.05
2018-07-31T02:16:34.664Z,98698.75
2018-07-31T02:19:02.913Z,98696.16
2018-07-31T02:21:31.393Z,98696.31
2018-07-31T02:23:59.711Z,98701.50
2018-07-31T02:26:28.073Z,98693.31
2018-07-31T02:28:56.433Z,98694.41
2018-07-31T02:31:24.849Z,98698.86
2018-07-31T02:33:53.266Z,98699.66
2018-07-31T02:36:21.566Z,98699.75
2018-07-31T02:38:49.858Z,98706.94
2018-07-31T02:41:18.143Z,98699.80
2018-07-31T02:43:46.481Z,98697.08
2018-07-31T02:46:14.893Z,98698.91
2018-07-31T02:48:43.185Z,98700.39
2018-07-31T02:51:11.526Z,98700.37
2018-07-31T02:53:39.913Z,98704.80
2018-07-31T02:56:08.419Z,98704.61
2018-07-31T02:58:36.819Z,98697.64
2018-07-31T03:01:05.173Z,98709.57
2018-07-31T03:03:40.265Z,98702.48
2018-07-31T03:06:08.666Z,98703.95
2018-07-31T03:08:36.973Z,98706.08
2018-07-31T03:11:05.313Z,98701.45
2018-07-31T03:13:33.700Z,98705.44
2018-07-31T03:16:02.105Z,98704.61
2018-07-31T03:18:30.480Z,98698.77
2018-07-31T03:20:58.875Z,98701.78
2018-07-31T03:23:27.196Z,98702.16
2018-07-31T03:25:55.454Z,98698.89
2018-07-31T03:28:23.730Z,98695.73
2018-07-31T03:30:52.033Z,98703.11
2018-07-31T03:33:20.316Z,98703.59
2018-07-31T03:35:48.717Z,98703.58
2018-07-31T03:38:16.996Z,98703.72
2018-07-31T03:40:45.855Z,98702.80
2018-07-31T03:43:14.269Z,98703.08
2018-07-31T03:45:42.664Z,98707.20
2018-07-31T03:48:11.106Z,98702.56
2018-07-31T03:50:39.502Z,98704.97
2018-07-31T03:53:07.798Z,98694.90
2018-07-31T03:55:36.087Z,98698.81
2018-07-31T03:58:04.419Z,98698.95
2018-07-31T04:00:32.685Z,98699.09
2018-07-31T04:03:01.165Z,98702.17
2018-07-31T04:05:29.475Z,98700.53
2018-07-31T04:07:57.889Z,98701.23
2018-07-31T04:10:26.243Z,98698.03
2018-07-31T04:12:54.661Z,98700.83
2018-07-31T04:15:22.945Z,98693.91
2018-07-31T04:17:54.369Z,98695.79
2018-07-31T04:20:22.781Z,98704.07
2018-07-31T04:22:51.157Z,98699.08
2018-07-31T04:25:21.868Z,98695.93
2018-07-31T04:27:53.128Z,98700.02
2018-07-31T04:30:22.304Z,98696.63
2018-07-31T04:32:53.514Z,98698.58
2018-07-31T04:35:21.868Z,98699.39
2018-07-31T04:37:51.041Z,98701.53
2018-07-31T04:40:19.465Z,98701.84
2018-07-31T04:49:01.920Z,98704.11
2018-07-31T04:52:33.310Z,98697.70
2018-07-31T04:55:02.399Z,98703.16
2018-07-31T04:57:32.595Z,98699.64
2018-07-31T05:00:01.259Z,98694.36
2018-07-31T05:02:31.569Z,98692.93
2018-07-31T05:05:00.312Z,98698.20
2018-07-31T05:07:28.996Z,98696.78
2018-07-31T05:09:59.562Z,98695.69
2018-07-31T05:12:29.613Z,98696.84
2018-07-31T05:14:58.107Z,98703.26
2018-07-31T05:17:30.303Z,98704.66
2018-07-31T05:20:00.472Z,98701.23
2018-07-31T05:22:53.292Z,98699.70
2018-07-31T05:25:26.401Z,98699.59
2018-07-31T05:27:55.928Z,98697.73
2018-07-31T05:30:25.064Z,98703.92
2018-07-31T05:32:55.221Z,98709.67
2018-07-31T05:35:26.988Z,98712.92
2018-07-31T05:37:57.450Z,98703.09
2018-07-31T05:40:26.821Z,98706.73
2018-07-31T05:42:57.602Z,98712.77
2018-07-31T05:45:34.129Z,98711.63
2018-07-31T05:48:04.163Z,98714.41
2018-07-31T05:50:33.942Z,98714.16
2018-07-31T05:53:02.543Z,98716.30
2018-07-31T05:55:31.821Z,98712.74
2018-07-31T05:58:21.399Z,98709.99
2018-07-31T06:00:50.072Z,98712.67
2018-07-31T06:03:18.679Z,98715.38
2018-07-31T06:05:55.028Z,98710.42
2018-07-31T06:08:25.471Z,98715.39
2018-07-31T06:10:54.099Z,98719.23
2018-07-31T06:13:23.486Z,98715.22
2018-07-31T06:15:52.008Z,98723.61
2018-07-31T06:18:22.227Z,98721.94
2018-07-31T06:20:50.710Z,98723.24
2018-07-31T06:23:20.157Z,98724.75
2018-07-31T06:25:50.971Z,98730.39
2018-07-31T06:28:20.521Z,98727.56
2018-07-31T06:30:50.002Z,98721.70
2018-07-31T06:33:18.359Z,98726.73
2018-07-31T06:35:50.003Z,98726.12
2018-07-31T06:38:20.581Z,98741.27
2018-07-31T06:40:49.649Z,98733.80
2018-07-31T06:43:18.636Z,98734.48
2018-07-31T06:45:47.244Z,98738.58
2018-07-31T06:48:15.930Z,98734.75
2018-07-31T06:50:44.362Z,98732.11
2018-07-31T06:53:15.917Z,98735.11
2018-07-31T06:55:46.536Z,98735.77
2018-07-31T06:58:15.055Z,98736.86
2018-07-31T07:00:45.479Z,98736.20
2018-07-31T07:03:17.480Z,98742.41
2018-07-31T07:05:45.961Z,98735.41
2018-07-31T07:08:15.434Z,98740.30
2018-07-31T07:10:44.001Z,98745.81
2018-07-31T07:13:12.551Z,98743.24
2018-07-31T07:15:40.895Z,98738.14
2018-07-31T07:18:09.831Z,98742.58
2018-07-31T07:20:39.470Z,98735.80
2018-07-31T07:23:13.554Z,98739.81
2018-07-31T07:25:43.476Z,98736.02
2018-07-31T07:28:13.123Z,98738.61
2018-07-31T07:33:27.242Z,98743.74
2018-07-31T07:35:57.725Z,98744.92
2018-07-31T07:38:26.875Z,98749.05
2018-07-31T07:41:02.551Z,98752.22
2018-07-31T07:43:32.257Z,98748.87
2018-07-31T07:46:00.978Z,98747.45
2018-07-31T07:48:31.447Z,98743.37
2018-07-31T07:51:02.086Z,98741.77
2018-07-31T07:53:34.581Z,98739.05
2018-07-31T07:56:10.235Z,98739.44
2018-07-31T07:58:41.237Z,98740.42
2018-07-31T08:01:10.703Z,98739.00
2018-07-31T08:03:39.206Z,98746.20
2018-07-31T08:06:07.914Z,98745.30
2018-07-31T08:08:36.695Z,98745.37
2018-07-31T08:11:12.432Z,98749.05
2018-07-31T08:13:41.298Z,98743.89
2018-07-31T08:16:09.704Z,98751.83
2018-07-31T08:18:38.041Z,98746.44
2018-07-31T08:21:07.306Z,98744.57
2018-07-31T08:23:36.942Z,98740.42
2018-07-31T08:26:05.548Z,98743.78
2018-07-31T08:28:34.833Z,98742.41
2018-07-31T08:31:04.077Z,98741.93
2018-07-31T08:33:33.125Z,98739.94
2018-07-31T08:36:01.636Z,98743.06
2018-07-31T08:38:30.141Z,98735.81
2018-07-31T08:40:58.619Z,98735.92
2018-07-31T08:43:27.780Z,98738.03
2018-07-31T08:46:01.005Z,98736.75
2018-07-31T08:48:29.577Z,98738.79
2018-07-31T08:50:58.083Z,98734.16
2018-07-31T08:53:26.597Z,98736.75
2018-07-31T08:55:55.126Z,98736.48
2018-07-31T08:58:24.521Z,98732.25
2018-07-31T09:00:53.106Z,98735.94
2018-07-31T09:03:21.741Z,98737.94
2018-07-31T09:05:50.237Z,98734.70
2018-07-31T09:08:19.318Z,98726.95
2018-07-31T09:10:47.692Z,98734.53
2018-07-31T09:13:16.280Z,98731.04
2018-07-31T09:15:44.769Z,98723.73
2018-07-31T09:18:14.250Z,98719.23
2018-07-31T09:20:42.715Z,98723.45
2018-07-31T09:23:11.134Z,98724.01
2018-07-31T09:25:45.832Z,98715.44
2018-07-31T09:28:15.893Z,98716.02
2018-07-31T09:30:49.593Z,98713.19
2018-07-31T09:33:18.104Z,98714.32
2018-07-31T09:35:46.955Z,98718.70
2018-07-31T09:38:15.414Z,98715.15
2018-07-31T09:40:43.917Z,98714.08
2018-07-31T09:43:13.402Z,98727.05
2018-07-31T09:45:43.049Z,98719.59
2018-07-31T09:48:11.932Z,98722.37
2018-07-31T09:50:40.450Z,98724.56
2018-07-31T09:53:09.347Z,98722.08
2018-07-31T09:55:38.992Z,98726.78
2018-07-31T09:58:07.395Z,98720.70
2018-07-31T10:00:40.949Z,98727.25
2018-07-31T10:03:09.439Z,98721.19
2018-07-31T10:05:37.944Z,98718.69
2018-07-31T10:08:07.003Z,98729.44
2018-07-31T10:10:35.666Z,98719.23
2018-07-31T10:13:04.520Z,98722.00
2018-07-31T10:15:34.286Z,98719.75
2018-07-31T10:18:02.764Z,98708.94
2018-07-31T10:20:31.157Z,98708.61
2018-07-31T10:22:59.661Z,98701.11
2018-07-31T10:25:28.099Z,98702.30
2018-07-31T10:27:56.578Z,98712.48
2018-07-31T10:30:25.114Z,98710.33
2018-07-31T10:32:53.718Z,98705.30
2018-07-31T10:35:22.820Z,98708.77
2018-07-31T10:37:51.554Z,98710.98
2018-07-31T10:40:19.977Z,98709.91
2018-07-31T10:42:48.399Z,98710.09
2018-07-31T10:45:17.516Z,98713.92
2018-07-31T10:47:46.657Z,98714.64
2018-07-31T10:50:16.095Z,98716.97
2018-07-31T10:52:44.603Z,98720.03
2018-07-31T10:55:13.595Z,98719.45
2018-07-31T10:57:43.256Z,98713.70
2018-07-31T11:00:11.665Z,98716.88
2018-07-31T11:02:40.667Z,98708.92
2018-07-31T11:05:09.259Z,98702.32
2018-07-31T11:07:37.542Z,98701.78
2018-07-31T11:10:06.220Z,98691.30
2018-07-31T11:12:34.580Z,98686.17
2018-07-31T11:15:02.970Z,98688.05
2018-07-31T11:17:31.269Z,98692.03
2018-07-31T11:19:59.859Z,98691.29
2018-07-31T11:22:28.181Z,98701.80
2018-07-31T11:24:56.491Z,98699.02
2018-07-31T11:27:24.853Z,98686.61
2018-07-31T11:29:53.161Z,98691.21
2018-07-31T11:32:21.582Z,98687.98
2018-07-31T11:34:49.988Z,98687.84
2018-07-31T11:37:18.307Z,98686.14
2018-07-31T11:39:46.620Z,98688.64
2018-07-31T11:42:14.939Z,98681.78
2018-07-31T11:44:43.285Z,98678.75
2018-07-31T11:47:11.889Z,98677.03
2018-07-31T11:49:40.290Z,98689.47
2018-07-31T11:52:08.699Z,98680.96
2018-07-31T11:54:37.146Z,98674.58
2018-07-31T11:57:05.486Z,98673.41
2018-07-31T11:59:35.999Z,98675.61
2018-07-31T12:02:11.085Z,98672.21
2018-07-31T12:04:44.667Z,98675.77
2018-07-31T12:07:17.402Z,98673.30
2018-07-31T12:09:52.132Z,98663.67
2018-07-31T12:12:26.990Z,98664.89
2018-07-31T12:14:55.330Z,98655.41
2018-07-31T12:17:23.630Z,98664.47
2018-07-31T12:19:51.938Z,98655.16
2018-07-31T12:22:20.249Z,98655.09
2018-07-31T12:24:48.611Z,98661.91
2018-07-31T12:27:16.946Z,98662.52
2018-07-31T12:29:45.303Z,98662.51
2018-07-31T12:32:13.644Z,98661.44
2018-07-31T12:34:42.012Z,98659.06
2018-07-31T12:37:10.411Z,98659.17
2018-07-31T12:39:38.743Z,98657.75
2018-07-31T12:42:07.158Z,98656.41
2018-07-31T12:44:35.477Z,98666.32
2018-07-31T12:47:03.806Z,98654.11
2018-07-31T12:49:32.113Z,98660.16
2018-07-31T12:52:00.457Z,98661.50
2018-07-31T12:54:28.763Z,98657.39
2018-07-31T12:56:57.102Z,98654.00
2018-07-31T12:59:25.538Z,98645.86
2018-07-31T13:01:53.891Z,98654.36
2018-07-31T13:05:47.122Z,98654.50
2018-07-31T13:08:15.655Z,98659.03
2018-07-31T13:10:44.105Z,98655.43
2018-07-31T13:13:12.529Z,98648.53
2018-07-31T13:15:41.003Z,98645.24
2018-07-31T13:18:09.305Z,98650.78
2018-07-31T13:20:37.875Z,98648.61
2018-07-31T13:23:06.351Z,98647.19
2018-07-31T13:25:34.931Z,98641.53
2018-07-31T13:28:03.278Z,98643.59
2018-07-31T13:30:31.626Z,98642.34
2018-07-31T13:32:59.962Z,98637.88
2018-07-31T13:35:28.309Z,98629.25
2018-07-31T13:37:56.606Z,98635.77
2018-07-31T13:40:24.940Z,98636.75
2018-07-31T13:42:53.292Z,98630.45
2018-07-31T13:45:21.589Z,98633.22
2018-07-31T13:47:49.901Z,98641.34
2018-07-31T13:50:18.270Z,98645.88
2018-07-31T13:52:46.620Z,98649.30
2018-07-31T13:55:14.983Z,98651.80
2018-07-31T13:57:43.278Z,98653.41
2018-07-31T14:00:11.665Z,98647.61
2018-07-31T14:02:39.986Z,98650.08
2018-07-31T14:05:08.328Z,98649.32
2018-07-31T14:07:36.839Z,98649.41
2018-07-31T14:10:05.562Z,98651.19
2018-07-31T14:12:33.868Z,98647.95
2018-07-31T14:15:02.160Z,98648.12
2018-07-31T14:17:30.582Z,98645.39
2018-07-31T14:19:59.048Z,98650.38
2018-07-31T14:22:27.487Z,98652.52
2018-07-31T14:24:55.806Z,98647.64
2018-07-31T14:27:24.142Z,98642.05
2018-07-31T14:29:52.491Z,98639.50
2018-07-31T14:32:20.836Z,98643.63
2018-07-31T14:34:49.139Z,98648.26
2018-07-31T14:37:17.464Z,98655.36
2018-07-31T14:39:45.767Z,98654.20
2018-07-31T14:42:14.120Z,98653.52
2018-07-31T14:44:42.478Z,98654.20
2018-07-31T14:47:10.827Z,98658.50
2018-07-31T14:49:39.137Z,98653.97
2018-07-31T14:52:07.454Z,98659.72
2018-07-31T14:54:35.754Z,98659.00
2018-07-31T14:57:04.145Z,98658.23
2018-07-31T14:59:32.468Z,98657.74
2018-07-31T15:02:00.805Z,98657.05
2018-07-31T15:04:29.123Z,98659.41
2018-07-31T15:06:57.463Z,98655.34
2018-07-31T15:09:25.786Z,98664.54
2018-07-31T15:11:54.145Z,98662.30
2018-07-31T15:14:22.443Z,98661.97
2018-07-31T15:16:50.771Z,98661.65
2018-07-31T15:19:19.068Z,98664.20
2018-07-31T15:21:47.414Z,98660.11
2018-07-31T15:24:15.723Z,98659.18
2018-07-31T15:26:44.052Z,98656.33
2018-07-31T15:29:12.380Z,98661.56
2018-07-31T15:31:40.703Z,98652.55
2018-07-31T15:34:08.998Z,98668.84
2018-07-31T15:36:37.325Z,98659.48
2018-07-31T15:39:08.674Z,98663.89
2018-07-31T15:41:37.047Z,98662.06
2018-07-31T15:44:05.395Z,98650.38
2018-07-31T15:46:33.715Z,98653.45
2018-07-31T15:49:02.013Z,98653.80
2018-07-31T15:51:30.351Z,98655.27
2018-07-31T15:53:58.711Z,98661.38
2018-07-31T15:56:27.098Z,98663.72
2018-07-31T15:58:55.629Z,98659.66
2018-07-31T16:01:23.934Z,98655.13
2018-07-31T16:03:52.256Z,98649.44
2018-07-31T16:06:20.609Z,98662.83
2018-07-31T16:08:55.537Z,98656.00
2018-07-31T16:11:23.963Z,98664.34
2018-07-31T16:13:52.288Z,98665.23
2018-07-31T16:16:20.609Z,98661.95
2018-07-31T16:18:48.928Z,98659.72
2018-07-31T16:21:17.242Z,98662.63
2018-07-31T16:23:45.725Z,98660.72
2018-07-31T16:26:14.048Z,98662.69
2018-07-31T16:28:42.380Z,98663.91
2018-07-31T16:31:10.739Z,98662.28
2018-07-31T16:33:39.098Z,98658.83
2018-07-31T16:36:07.583Z,98676.63
2018-07-31T16:38:35.945Z,98673.42
2018-07-31T16:41:04.297Z,98678.38
2018-07-31T16:43:32.839Z,98670.03
2018-07-31T16:46:01.495Z,98678.52
2018-07-31T16:48:29.811Z,98672.95
2018-07-31T16:50:58.140Z,98670.45
2018-07-31T16:53:26.629Z,98672.86
2018-07-31T16:55:54.997Z,98675.08
2018-07-31T16:58:23.326Z,98672.75
2018-07-31T17:00:51.795Z,98679.91
2018-07-31T17:03:20.217Z,98684.64
2018-07-31T17:05:48.575Z,98682.43
2018-07-31T17:08:16.892Z,98690.83
2018-07-31T17:10:45.271Z,98678.52
2018-07-31T17:13:13.610Z,98686.11
2018-07-31T17:15:41.928Z,98684.69
2018-07-31T17:18:10.265Z,98680.80
2018-07-31T17:20:38.634Z,98681.85
2018-07-31T17:23:07.195Z,98689.59
2018-07-31T17:25:35.574Z,98688.48
2018-07-31T17:28:04.064Z,98691.95
2018-07-31T17:30:32.396Z,98691.60
2018-07-31T17:33:00.726Z,98694.42
2018-07-31T17:35:29.093Z,98691.58
2018-07-31T17:37:57.717Z,98699.09
2018-07-31T17:40:26.172Z,98696.80
2018-07-31T17:42:54.511Z,98702.11
2018-07-31T17:45:22.847Z,98703.58
2018-07-31T17:47:51.663Z,98704.98
2018-07-31T17:50:19.959Z,98707.80
2018-07-31T17:52:48.467Z,98710.52
2018-07-31T17:55:16.741Z,98713.34
2018-07-31T17:57:45.113Z,98716.60
2018-07-31T18:00:13.455Z,98723.69
2018-07-31T18:02:41.800Z,98716.23
2018-07-31T18:05:10.263Z,98724.80
2018-07-31T18:07:38.612Z,98723.69
2018-07-31T18:10:07.175Z,98725.59
2018-07-31T18:12:35.581Z,98733.65
2018-07-31T18:15:03.942Z,98739.44
2018-07-31T18:17:32.250Z,98734.52
2018-07-31T18:20:00.590Z,98728.16
2018-07-31T18:22:28.985Z,98740.85
2018-07-31T18:24:57.278Z,98739.48
2018-07-31T18:27:25.978Z,98735.05
2018-07-31T18:29:54.702Z,98737.80
2018-07-31T18:32:22.994Z,98747.45
2018-07-31T18:34:51.936Z,98745.80
2018-07-31T18:37:20.275Z,98747.17
2018-07-31T18:39:48.678Z,98749.32
2018-07-31T18:42:17.002Z,98749.28
2018-07-31T18:44:45.317Z,98752.86
2018-07-31T18:47:13.613Z,98755.86
2018-07-31T18:49:42.155Z,98759.48
2018-07-31T18:52:10.481Z,98763.66
2018-07-31T18:54:38.900Z,98764.13
2018-07-31T18:57:07.341Z,98764.12
2018-07-31T18:59:35.771Z,98769.80
2018-07-31T19:02:04.146Z,98770.91
2018-07-31T19:05:01.654Z,98776.34
2018-07-31T19:07:31.394Z,98777.05
2018-07-31T19:10:00.108Z,98778.19
2018-07-31T19:12:28.434Z,98788.16
2018-07-31T19:14:56.951Z,98785.31
2018-07-31T19:17:25.371Z,98789.44
2018-07-31T19:19:53.694Z,98794.67
2018-07-31T19:22:22.107Z,98797.89
2018-07-31T19:24:50.500Z,98795.64
2018-07-31T19:27:18.805Z,98800.32
2018-07-31T19:29:47.398Z,98807.83
2018-07-31T19:32:16.019Z,98811.67
2018-07-31T19:34:44.375Z,98810.27
2018-07-31T19:37:12.803Z,98820.04
2018-07-31T19:39:41.319Z,98826.39
2018-07-31T19:42:09.879Z,98832.86
2018-07-31T19:44:38.420Z,98839.86
2018-07-31T19:47:07.406Z,98832.80
2018-07-31T19:49:35.971Z,98835.20
2018-07-31T19:52:04.586Z,98837.30
2018-07-31T19:54:32.942Z,98846.77
2018-07-31T19:57:01.279Z,98842.89
2018-07-31T19:59:29.688Z,98852.02
2018-07-31T20:01:58.152Z,98851.48
2018-07-31T20:04:26.668Z,98849.13
2018-07-31T20:06:55.268Z,98861.78
2018-07-31T20:09:28.446Z,98857.23
2018-07-31T20:11:57.755Z,98859.32
2018-07-31T20:14:26.566Z,98871.69
2018-07-31T20:16:55.858Z,98872.66
2018-07-31T20:19:24.251Z,98876.75
2018-07-31T20:21:53.046Z,98873.44
2018-07-31T20:24:21.450Z,98875.23
2018-07-31T20:26:50.862Z,98876.62
2018-07-31T20:29:24.513Z,98878.57
2018-07-31T20:31:52.883Z,98881.14
2018-07-31T20:34:22.334Z,98881.44
2018-07-31T20:36:50.743Z,98889.59
2018-07-31T20:39:20.378Z,98893.23
2018-07-31T20:41:48.836Z,98900.92
2018-07-31T20:44:20.610Z,98886.60
2018-07-31T20:46:49.153Z,98901.61
2018-07-31T20:49:18.368Z,98912.50
2018-07-31T20:51:47.011Z,98906.19
2018-07-31T20:54:15.454Z,98917.95
2018-07-31T20:56:47.815Z,98899.00
2018-07-31T20:59:16.183Z,98909.00
2018-07-31T21:01:45.380Z,98913.21
2018-07-31T21:04:15.915Z,98907.17
2018-07-31T21:06:50.086Z,98910.46
2018-07-31T21:09:20.820Z,98912.97
2018-07-31T21:11:51.506Z,98913.87
2018-07-31T21:14:21.278Z,98911.77
2018-07-31T21:17:05.535Z,98919.16
2018-07-31T21:19:33.950Z,98917.16
2018-07-31T21:22:02.332Z,98919.42
2018-07-31T21:24:30.622Z,98929.02
2018-07-31T21:26:58.962Z,98924.85
2018-07-31T21:29:27.254Z,98927.67
2018-07-31T21:31:55.590Z,98934.55
2018-07-31T21:34:23.898Z,98937.95
2018-07-31T21:36:52.227Z,98940.27
2018-07-31T21:39:20.577Z,98948.78
2018-07-31T21:41:48.960Z,98949.46
2018-07-31T21:44:17.328Z,98956.06
2018-07-31T21:46:45.676Z,98960.23
2018-07-31T21:49:14.007Z,98963.54
2018-07-31T21:51:51.797Z,98966.52
2018-07-31T21:54:20.093Z,98975.73
2018-07-31T21:56:48.551Z,98968.66
2018-07-31T21:59:17.998Z,98985.62
2018-07-31T22:01:46.319Z,98978.67
2018-07-31T22:04:14.610Z,98986.23
2018-07-31T22:06:42.930Z,98979.93
2018-07-31T22:09:11.247Z,98985.40
2018-07-31T22:11:39.607Z,98991.52
2018-07-31T22:14:08.223Z,98990.92
2018-07-31T22:16:36.549Z,98993.52
2018-07-31T22:19:04.854Z,98990.62
2018-07-31T22:21:33.186Z,98990.62
2018-07-31T22:24:01.497Z,98993.42
2018-07-31T22:26:29.782Z,99007.49
2018-07-31T22:28:58.138Z,99011.00
2018-07-31T22:31:26.445Z,99005.28
2018-07-31T22:33:54.746Z,99020.76
2018-07-31T22:36:23.120Z,99016.95
2018-07-31T22:38:51.406Z,99021.29
2018-07-31T22:41:19.755Z,99020.85
2018-07-31T22:43:48.057Z,99018.41
2018-07-31T22:46:16.350Z,99026.16
2018-07-31T22:48:44.647Z,99042.00
2018-07-31T22:51:12.970Z,99035.40
2018-07-31T22:53:41.252Z,99023.66
2018-07-31T22:56:09.539Z,99023.98
2018-07-31T22:58:37.864Z,99026.19
2018-07-31T23:01:06.215Z,99030.55
2018-07-31T23:03:34.531Z,99030.89
2018-07-31T23:06:02.986Z,99029.61
2018-07-31T23:08:31.294Z,99039.84
2018-07-31T23:10:59.592Z,99044.34
2018-07-31T23:13:27.895Z,99043.81
2018-07-31T23:15:56.200Z,99047.27
2018-07-31T23:18:24.527Z,99054.21
2018-07-31T23:20:52.896Z,99051.31
2018-07-31T23:23:21.210Z,99048.97
2018-07-31T23:25:49.534Z,99055.42
2018-07-31T23:28:24.646Z,99055.47
2018-07-31T23:30:52.984Z,99058.76
2018-07-31T23:33:21.339Z,99064.73
2018-07-31T23:35:49.662Z,99072.31
2018-07-31T23:38:17.959Z,99061.11
2018-07-31T23:40:46.258Z,99055.66
2018-07-31T23:43:14.581Z,99059.72
2018-07-31T23:45:42.883Z,99062.11
2018-07-31T23:48:11.206Z,99059.97
2018-07-31T23:50:39.547Z,99071.41
2018-07-31T23:53:07.942Z,99065.73
2018-07-31T23:55:36.231Z,99071.13
2018-07-31T23:58:04.561Z,99069.45
